createdAt,value
2023-01-09T00:01:59.068Z,7.20
2023-01-09T00:04:29.371Z,7.30
2023-01-09T00:06:59.581Z,7.40
2023-01-09T00:09:30.255Z,7.30
2023-01-09T00:12:00.699Z,7.30
2023-01-09T00:14:33.385Z,7.40
2023-01-09T00:17:03.906Z,7.40
2023-01-09T00:19:34.105Z,7.50
2023-01-09T00:22:04.146Z,7.50
2023-01-09T00:24:34.165Z,7.50
2023-01-09T00:27:04.548Z,7.60
2023-01-09T00:29:37.640Z,7.70
2023-01-09T00:32:12.370Z,7.70
2023-01-09T00:34:43.366Z,7.60
2023-01-09T00:37:14.535Z,7.60
2023-01-09T00:39:45.554Z,7.60
2023-01-09T00:42:24.568Z,7.70
2023-01-09T00:45:04.097Z,7.80
2023-01-09T00:47:42.872Z,7.70
2023-01-09T00:50:29.396Z,7.70
2023-01-09T00:53:04.099Z,7.70
2023-01-09T00:55:34.389Z,7.70
2023-01-09T00:58:04.629Z,7.80
2023-01-09T01:00:37.723Z,7.60
2023-01-09T01:03:09.478Z,7.70
2023-01-09T01:05:52.166Z,7.80
2023-01-09T01:08:23.317Z,7.80
2023-01-09T01:10:53.475Z,7.90
2023-01-09T01:13:23.520Z,8.00
2023-01-09T01:15:56.125Z,8.00
2023-01-09T01:18:26.434Z,8.10
2023-01-09T01:20:56.690Z,8.10
2023-01-09T01:23:26.990Z,8.00
2023-01-09T01:25:57.028Z,8.00
2023-01-09T01:28:27.049Z,8.00
2023-01-09T01:30:59.931Z,8.00
2023-01-09T01:33:30.066Z,8.00
2023-01-09T01:36:04.964Z,8.00
2023-01-09T01:38:36.543Z,8.00
2023-01-09T01:41:08.075Z,7.90
2023-01-09T01:43:54.505Z,7.90
2023-01-09T01:46:27.619Z,7.90
2023-01-09T01:49:03.943Z,7.80
2023-01-09T01:51:39.513Z,7.90
2023-01-09T01:54:17.675Z,7.90
2023-01-09T01:56:51.541Z,7.80
2023-01-09T01:59:27.517Z,7.80
2023-01-09T02:02:03.867Z,7.70
2023-01-09T02:04:39.294Z,7.70
2023-01-09T02:07:12.885Z,7.70
2023-01-09T02:09:45.277Z,7.60
2023-01-09T02:12:23.928Z,7.50
2023-01-09T02:14:59.949Z,7.50
2023-01-09T02:18:06.232Z,7.40
2023-01-09T02:20:56.376Z,7.30
2023-01-09T02:24:09.991Z,7.30
2023-01-09T02:27:11.545Z,7.40
2023-01-09T02:30:25.244Z,7.40
2023-01-09T02:33:28.430Z,7.40
2023-01-09T02:36:13.537Z,7.30
2023-01-09T02:38:59.325Z,7.30
2023-01-09T02:41:40.343Z,7.30
2023-01-09T02:44:26.980Z,7.30
2023-01-09T02:47:05.703Z,7.30
2023-01-09T02:49:42.768Z,7.30
2023-01-09T02:52:33.656Z,7.30
2023-01-09T02:55:14.568Z,7.30
2023-01-09T02:57:59.563Z,7.40
2023-01-09T03:00:46.109Z,7.40
2023-01-09T03:03:27.592Z,7.30
2023-01-09T03:06:18.730Z,7.40
2023-01-09T03:08:55.527Z,7.40
2023-01-09T03:11:30.154Z,7.40
2023-01-09T03:14:12.264Z,7.40
2023-01-09T03:16:45.697Z,7.40
2023-01-09T03:19:22.098Z,7.30
2023-01-09T03:21:57.851Z,7.30
2023-01-09T03:24:28.015Z,7.40
2023-01-09T03:26:58.245Z,7.40
2023-01-09T03:29:29.787Z,7.30
2023-01-09T03:31:59.824Z,7.30
2023-01-09T03:34:29.930Z,7.30
2023-01-09T03:37:04.558Z,7.30
2023-01-09T03:39:35.399Z,7.20
2023-01-09T03:42:05.606Z,7.10
2023-01-09T03:44:35.658Z,7.10
2023-01-09T03:47:05.643Z,7.00
2023-01-09T03:49:35.660Z,7.00
2023-01-09T03:52:08.621Z,7.00
2023-01-09T03:54:39.451Z,7.00
2023-01-09T03:57:09.492Z,7.00
2023-01-09T03:59:39.991Z,7.10
2023-01-09T04:02:10.339Z,7.20
2023-01-09T04:04:40.741Z,7.00
2023-01-09T04:07:13.554Z,7.10
2023-01-09T04:09:43.601Z,7.10
2023-01-09T04:12:14.411Z,7.20
2023-01-09T04:14:44.409Z,7.20
2023-01-09T04:17:16.658Z,7.10
2023-01-09T04:19:46.933Z,7.10
2023-01-09T04:22:19.650Z,7.00
2023-01-09T04:24:49.999Z,7.00
2023-01-09T04:27:20.036Z,6.90
2023-01-09T04:29:50.110Z,7.00
2023-01-09T04:32:20.519Z,7.00
2023-01-09T04:34:50.916Z,6.80
2023-01-09T04:37:24.260Z,6.60
2023-01-09T04:39:56.084Z,6.60
2023-01-09T04:42:26.790Z,6.50
2023-01-09T04:44:56.956Z,6.50
2023-01-09T04:47:26.968Z,6.50
2023-01-09T04:49:57.264Z,6.40
2023-01-09T04:52:30.195Z,6.40
2023-01-09T04:55:01.062Z,6.30
2023-01-09T04:57:31.084Z,6.10
2023-01-09T05:00:01.163Z,5.90
2023-01-09T05:02:31.221Z,5.80
2023-01-09T05:05:01.367Z,5.70
2023-01-09T05:07:34.403Z,5.60
2023-01-09T05:10:05.127Z,5.60
2023-01-09T05:12:36.530Z,5.50
2023-01-09T05:15:07.807Z,5.50
2023-01-09T05:17:37.952Z,5.40
2023-01-09T05:20:09.391Z,5.40
2023-01-09T05:22:42.148Z,5.40
2023-01-09T05:25:12.802Z,5.50
2023-01-09T05:27:46.202Z,5.60
2023-01-09T05:30:18.354Z,5.60
2023-01-09T05:32:48.980Z,5.50
2023-01-09T05:35:20.566Z,5.50
2023-01-09T05:37:53.221Z,5.50
2023-01-09T05:40:29.063Z,5.40
2023-01-09T05:43:02.612Z,5.30
2023-01-09T05:45:32.706Z,5.30
2023-01-09T05:48:02.813Z,5.30
2023-01-09T05:50:32.882Z,5.20
2023-01-09T05:53:06.783Z,5.10
2023-01-09T05:55:37.461Z,5.00
2023-01-09T05:58:07.643Z,4.90
2023-01-09T06:00:37.864Z,4.70
2023-01-09T06:03:08.059Z,4.50
2023-01-09T06:05:38.289Z,4.50
2023-01-09T06:08:11.321Z,4.40
2023-01-09T06:10:41.562Z,4.40
2023-01-09T06:13:11.725Z,4.20
2023-01-09T06:15:42.145Z,4.10
2023-01-09T06:18:12.356Z,4.10
2023-01-09T06:20:42.406Z,4.10
2023-01-09T06:23:15.165Z,4.00
2023-01-09T06:25:45.763Z,4.00
2023-01-09T06:28:15.793Z,4.00
2023-01-09T06:30:46.610Z,3.90
2023-01-09T06:33:16.661Z,3.90
2023-01-09T06:35:46.862Z,3.80
2023-01-09T06:38:19.640Z,3.60
2023-01-09T06:40:50.928Z,3.50
2023-01-09T06:43:21.052Z,3.60
2023-01-09T06:45:51.370Z,3.70
2023-01-09T06:48:21.505Z,3.90
2023-01-09T06:50:51.920Z,4.20
2023-01-09T06:53:24.724Z,4.30
2023-01-09T06:55:54.979Z,4.20
2023-01-09T06:58:26.069Z,4.00
2023-01-09T07:00:56.344Z,4.00
2023-01-09T07:03:26.634Z,3.90
2023-01-09T07:05:56.768Z,4.00
2023-01-09T07:08:29.838Z,4.40
2023-01-09T07:10:59.860Z,4.50
2023-01-09T07:13:30.031Z,4.40
2023-01-09T07:16:00.081Z,4.40
2023-01-09T07:18:30.143Z,4.40
2023-01-09T07:21:00.536Z,4.60
2023-01-09T07:23:33.623Z,4.60
2023-01-09T07:26:04.503Z,4.70
2023-01-09T07:28:34.702Z,4.90
2023-01-09T07:31:07.647Z,5.00
2023-01-09T07:33:38.274Z,5.00
2023-01-09T07:36:09.517Z,4.90
2023-01-09T07:38:42.388Z,5.00
2023-01-09T07:41:12.537Z,5.00
2023-01-09T07:43:42.847Z,5.10
2023-01-09T07:46:13.001Z,5.20
2023-01-09T07:48:43.364Z,5.20
2023-01-09T07:51:13.710Z,5.10
2023-01-09T07:53:46.454Z,5.10
2023-01-09T07:56:16.493Z,5.10
2023-01-09T07:58:46.541Z,5.10
2023-01-09T08:01:16.728Z,4.90
2023-01-09T08:03:47.097Z,4.90
2023-01-09T08:06:17.220Z,4.80
2023-01-09T08:08:50.174Z,4.80
2023-01-09T08:11:20.294Z,4.60
2023-01-09T08:13:50.658Z,4.60
2023-01-09T08:16:20.945Z,4.60
2023-01-09T08:18:51.113Z,4.60
2023-01-09T08:21:21.428Z,4.40
2023-01-09T08:23:54.329Z,4.40
2023-01-09T08:26:24.433Z,4.50
2023-01-09T08:28:54.493Z,4.50
2023-01-09T08:31:24.657Z,4.50
2023-01-09T08:33:54.947Z,4.60
2023-01-09T08:36:25.388Z,4.60
2023-01-09T08:38:58.458Z,4.60
2023-01-09T08:41:41.362Z,4.60
2023-01-09T08:44:24.207Z,4.60
2023-01-09T08:47:15.561Z,4.60
2023-01-09T08:49:45.761Z,4.60
2023-01-09T08:52:16.309Z,4.60
2023-01-09T08:54:49.323Z,4.60
2023-01-09T08:57:19.717Z,4.50
2023-01-09T08:59:50.065Z,4.50
2023-01-09T09:02:20.438Z,4.60
2023-01-09T09:04:53.058Z,4.80
2023-01-09T09:07:27.031Z,4.90
2023-01-09T09:09:59.690Z,5.10
2023-01-09T09:12:30.382Z,5.10
2023-01-09T09:15:16.988Z,5.10
2023-01-09T09:17:47.474Z,5.30
2023-01-09T09:20:18.789Z,5.10
2023-01-09T09:22:49.980Z,5.20
2023-01-09T09:25:23.688Z,5.30
2023-01-09T09:27:56.004Z,5.30
2023-01-09T09:30:27.788Z,5.40
2023-01-09T09:32:58.081Z,5.40
2023-01-09T09:35:28.618Z,5.50
2023-01-09T09:38:04.670Z,5.60
2023-01-09T09:41:08.464Z,5.60
2023-01-09T09:44:15.430Z,5.60
2023-01-09T09:46:56.596Z,5.70
2023-01-09T09:49:37.142Z,5.80
2023-01-09T09:52:22.076Z,6.00
2023-01-09T09:54:53.332Z,6.00
2023-01-09T09:57:37.315Z,6.00
2023-01-09T10:00:10.572Z,6.10
2023-01-09T10:02:51.900Z,6.20
2023-01-09T10:05:30.301Z,6.20
2023-01-09T10:08:15.891Z,6.40
2023-01-09T10:10:55.497Z,6.50
2023-01-09T10:13:41.669Z,6.60
2023-01-09T10:16:31.775Z,6.70
2023-01-09T10:19:23.118Z,6.70
2023-01-09T10:22:10.809Z,6.90
2023-01-09T10:25:06.879Z,7.10
2023-01-09T10:28:01.999Z,7.40
2023-01-09T10:30:45.107Z,7.60
2023-01-09T10:33:38.536Z,7.50
2023-01-09T10:36:38.339Z,7.70
2023-01-09T10:39:18.224Z,7.90
2023-01-09T10:42:01.895Z,8.50
2023-01-09T10:44:39.101Z,9.00
2023-01-09T10:47:20.716Z,9.20
2023-01-09T10:49:55.384Z,9.30
2023-01-09T10:52:36.092Z,9.50
2023-01-09T10:55:19.812Z,9.80
2023-01-09T10:57:55.919Z,9.80
2023-01-09T11:00:28.412Z,9.90
2023-01-09T11:03:01.471Z,10.00
2023-01-09T11:05:34.359Z,9.60
2023-01-09T11:08:23.042Z,9.40
2023-01-09T11:10:57.008Z,9.10
2023-01-09T11:13:30.346Z,8.90
2023-01-09T11:16:08.460Z,8.80
2023-01-09T11:18:50.777Z,8.40
2023-01-09T11:21:36.267Z,8.30
2023-01-09T11:24:31.490Z,8.10
2023-01-09T11:27:28.534Z,8.10
2023-01-09T11:30:31.163Z,8.20
2023-01-09T11:33:02.626Z,8.40
2023-01-09T11:35:42.371Z,8.50
2023-01-09T11:38:20.597Z,8.70
2023-01-09T11:40:54.222Z,8.90
2023-01-09T11:43:38.033Z,9.10
2023-01-09T11:46:11.675Z,9.20
2023-01-09T11:48:57.070Z,9.30
2023-01-09T11:51:32.403Z,9.60
2023-01-09T11:54:25.857Z,9.70
2023-01-09T11:56:56.318Z,9.90
2023-01-09T11:59:31.815Z,9.90
2023-01-09T12:02:55.497Z,9.70
2023-01-09T12:05:39.377Z,9.70
2023-01-09T12:08:37.552Z,9.70
2023-01-09T12:11:32.152Z,9.80
2023-01-09T12:14:24.832Z,10.10
2023-01-09T12:17:38.119Z,10.30
2023-01-09T12:20:32.059Z,10.60
2023-01-09T12:23:25.365Z,10.50
2023-01-09T12:26:16.324Z,10.00
2023-01-09T12:29:24.721Z,9.80
2023-01-09T12:32:16.015Z,9.80
2023-01-09T12:35:03.317Z,9.70
2023-01-09T12:38:08.005Z,9.50
2023-01-09T12:41:01.479Z,9.50
2023-01-09T12:43:47.198Z,9.40
2023-01-09T12:46:22.530Z,9.50
2023-01-09T12:49:22.732Z,9.60
2023-01-09T12:52:02.876Z,9.70
2023-01-09T12:54:43.937Z,9.60
2023-01-09T12:57:24.862Z,9.50
2023-01-09T13:00:00.093Z,9.50
2023-01-09T13:02:38.085Z,9.40
2023-01-09T13:05:19.788Z,9.30
2023-01-09T13:07:57.516Z,9.10
2023-01-09T13:10:33.735Z,8.70
2023-01-09T13:13:18.719Z,8.50
2023-01-09T13:15:55.820Z,8.40
2023-01-09T13:18:40.996Z,8.20
2023-01-09T13:21:12.692Z,8.00
2023-01-09T13:23:56.855Z,8.00
2023-01-09T13:26:32.650Z,7.60
2023-01-09T13:29:17.009Z,7.30
2023-01-09T13:32:15.506Z,6.90
2023-01-09T13:34:52.727Z,6.60
2023-01-09T13:37:29.689Z,6.50
2023-01-09T13:40:02.629Z,6.40
2023-01-09T13:42:40.791Z,6.50
2023-01-09T13:45:29.942Z,6.60
2023-01-09T13:48:42.433Z,6.70
2023-01-09T13:51:55.874Z,6.70
2023-01-09T13:55:23.991Z,6.70
2023-01-09T13:58:26.281Z,6.80
2023-01-09T14:01:03.366Z,6.80
2023-01-09T14:03:40.190Z,6.80
2023-01-09T14:06:21.655Z,6.80
2023-01-09T14:09:10.977Z,6.80
2023-01-09T14:11:41.680Z,6.70
2023-01-09T14:14:30.375Z,6.60
2023-01-09T14:17:04.864Z,6.60
2023-01-09T14:19:42.649Z,6.60
2023-01-09T14:22:29.573Z,6.60
2023-01-09T14:25:09.486Z,6.50
2023-01-09T14:28:23.479Z,6.60
2023-01-09T14:31:13.213Z,6.70
2023-01-09T14:33:50.925Z,6.70
2023-01-09T14:36:29.674Z,6.70
2023-01-09T14:39:05.383Z,6.80
2023-01-09T14:42:00.515Z,6.90
2023-01-09T14:44:34.156Z,6.80
2023-01-09T14:47:17.705Z,6.60
2023-01-09T14:50:04.175Z,6.40
2023-01-09T14:52:40.398Z,6.20
2023-01-09T14:55:25.848Z,6.00
2023-01-09T14:57:57.819Z,5.80
2023-01-09T15:00:28.155Z,5.60
2023-01-09T15:02:58.531Z,5.50
2023-01-09T15:05:31.796Z,5.40
2023-01-09T15:08:06.486Z,5.30
2023-01-09T15:10:40.960Z,5.30
2023-01-09T15:13:18.612Z,5.40
2023-01-09T15:15:51.629Z,5.50
2023-01-09T15:18:27.678Z,5.70
2023-01-09T15:21:04.451Z,5.80
2023-01-09T15:23:35.013Z,5.90
2023-01-09T15:26:26.003Z,6.00
2023-01-09T15:29:03.878Z,6.00
2023-01-09T15:31:34.438Z,6.00
2023-01-09T15:34:07.438Z,5.90
2023-01-09T15:36:41.267Z,6.00
2023-01-09T15:39:12.780Z,6.10
2023-01-09T15:41:55.329Z,6.10
2023-01-09T15:44:36.223Z,6.20
2023-01-09T15:47:11.603Z,6.20
2023-01-09T15:49:42.235Z,6.10
2023-01-09T15:52:18.729Z,6.10
2023-01-09T15:54:49.478Z,6.10
2023-01-09T15:57:35.702Z,6.10
2023-01-09T16:00:41.704Z,6.00
2023-01-09T16:03:23.310Z,6.00
2023-01-09T16:06:02.862Z,6.00
2023-01-09T16:08:40.651Z,5.90
2023-01-09T16:11:22.639Z,5.90
2023-01-09T16:13:53.404Z,5.90
2023-01-09T16:16:32.041Z,5.80
2023-01-09T16:19:02.865Z,5.80
2023-01-09T16:21:39.027Z,5.70
2023-01-09T16:24:29.437Z,5.70
2023-01-09T16:27:26.295Z,5.50
2023-01-09T16:29:58.995Z,5.30
2023-01-09T16:32:33.225Z,5.20
2023-01-09T16:35:06.502Z,5.00
2023-01-09T16:37:37.563Z,4.90
2023-01-09T16:40:36.169Z,4.90
2023-01-09T16:43:11.059Z,4.80
2023-01-09T16:45:44.892Z,4.80
2023-01-09T16:48:18.208Z,4.80
2023-01-09T16:50:48.633Z,4.80
2023-01-09T16:53:23.175Z,4.90
2023-01-09T16:55:57.310Z,4.90
2023-01-09T16:58:31.585Z,4.90
2023-01-09T17:01:02.127Z,5.00
2023-01-09T17:03:32.287Z,5.00
2023-01-09T17:06:04.198Z,5.00
2023-01-09T17:08:37.934Z,5.00
2023-01-09T17:11:23.510Z,5.00
2023-01-09T17:13:54.227Z,5.10
2023-01-09T17:16:24.595Z,5.10
2023-01-09T17:18:54.995Z,5.10
2023-01-09T17:21:29.110Z,5.10
2023-01-09T17:24:12.595Z,5.10
2023-01-09T17:27:04.375Z,5.10
2023-01-09T17:29:36.522Z,5.10
2023-01-09T17:32:09.022Z,5.10
2023-01-09T17:34:39.550Z,5.00
2023-01-09T17:37:09.771Z,5.00
2023-01-09T17:39:40.364Z,4.90
2023-01-09T17:42:13.006Z,4.90
2023-01-09T17:44:43.159Z,4.90
2023-01-09T17:47:18.004Z,4.90
2023-01-09T17:49:48.372Z,4.90
2023-01-09T17:52:18.500Z,4.80
2023-01-09T17:54:48.488Z,4.80
2023-01-09T17:57:21.382Z,4.80
2023-01-09T17:59:51.494Z,4.90
2023-01-09T18:02:24.004Z,4.90
2023-01-09T18:04:54.682Z,4.90
2023-01-09T18:07:24.887Z,4.90
2023-01-09T18:09:55.532Z,5.00
2023-01-09T18:12:28.250Z,5.00
2023-01-09T18:14:58.375Z,5.00
2023-01-09T18:17:31.407Z,4.90
2023-01-09T18:20:02.876Z,5.00
2023-01-09T18:22:33.003Z,5.00
2023-01-09T18:25:03.559Z,5.10
2023-01-09T18:27:38.993Z,5.10
2023-01-09T18:30:11.047Z,5.10
2023-01-09T18:32:42.452Z,5.10
2023-01-09T18:35:13.790Z,5.10
2023-01-09T18:37:44.308Z,5.10
2023-01-09T18:40:16.039Z,5.10
2023-01-09T18:42:48.770Z,5.00
2023-01-09T18:45:18.883Z,5.00
2023-01-09T18:47:50.220Z,4.90
2023-01-09T18:50:22.540Z,4.90
2023-01-09T18:52:52.615Z,4.80
2023-01-09T18:55:22.792Z,4.80
2023-01-09T18:57:55.433Z,4.80
2023-01-09T19:00:26.039Z,4.80
2023-01-09T19:02:56.087Z,4.70
2023-01-09T19:05:27.061Z,4.70
2023-01-09T19:07:58.195Z,4.70
2023-01-09T19:10:29.456Z,4.70
2023-01-09T19:13:02.214Z,4.60
2023-01-09T19:15:34.692Z,4.60
2023-01-09T19:18:04.782Z,4.60
2023-01-09T19:20:34.795Z,4.60
2023-01-09T19:23:04.772Z,4.60
2023-01-09T19:25:34.943Z,4.60
2023-01-09T19:28:08.117Z,4.50
2023-01-09T19:30:38.323Z,4.50
2023-01-09T19:33:08.623Z,4.50
2023-01-09T19:35:38.947Z,4.50
2023-01-09T19:38:09.304Z,4.50
2023-01-09T19:40:40.102Z,4.50
2023-01-09T19:43:25.757Z,4.50
2023-01-09T19:45:57.214Z,4.50
2023-01-09T19:48:29.010Z,4.60
2023-01-09T19:51:04.658Z,4.50
2023-01-09T19:53:36.135Z,4.50
2023-01-09T19:56:11.891Z,4.50
2023-01-09T19:58:46.443Z,4.50
2023-01-09T20:01:21.245Z,4.40
2023-01-09T20:03:52.426Z,4.40
2023-01-09T20:06:25.424Z,4.40
2023-01-09T20:08:59.166Z,4.40
2023-01-09T20:11:33.764Z,4.40
2023-01-09T20:14:06.416Z,4.40
2023-01-09T20:16:36.701Z,4.40
2023-01-09T20:19:08.703Z,4.40
2023-01-09T20:21:39.298Z,4.40
2023-01-09T20:24:13.300Z,4.40
2023-01-09T20:26:46.186Z,4.30
2023-01-09T20:29:19.456Z,4.30
2023-01-09T20:31:49.688Z,4.30
2023-01-09T20:34:20.034Z,4.40
2023-01-09T20:36:50.156Z,4.40
2023-01-09T20:39:20.777Z,4.50
2023-01-09T20:41:51.062Z,4.40
2023-01-09T20:44:25.244Z,4.40
2023-01-09T20:46:56.622Z,4.30
2023-01-09T20:49:27.207Z,4.30
2023-01-09T20:51:57.240Z,4.30
2023-01-09T20:54:27.482Z,4.10
2023-01-09T20:56:57.547Z,4.10
2023-01-09T20:59:30.287Z,4.10
2023-01-09T21:02:01.375Z,4.10
2023-01-09T21:04:32.266Z,4.10
2023-01-09T21:07:02.340Z,4.20
2023-01-09T21:09:32.705Z,4.20
2023-01-09T21:12:23.759Z,4.30
2023-01-09T21:14:57.579Z,4.30
2023-01-09T21:17:28.297Z,4.20
2023-01-09T21:19:58.409Z,4.30
2023-01-09T21:22:28.527Z,4.30
2023-01-09T21:24:58.743Z,4.30
2023-01-09T21:27:30.963Z,4.40
2023-01-09T21:30:03.772Z,4.40
2023-01-09T21:32:34.260Z,4.40
2023-01-09T21:35:07.356Z,4.50
2023-01-09T21:37:39.959Z,4.60
2023-01-09T21:40:16.197Z,4.70
2023-01-09T21:42:59.136Z,4.70
2023-01-09T21:45:45.143Z,4.90
2023-01-09T21:48:15.594Z,5.00
2023-01-09T21:50:45.783Z,5.10
2023-01-09T21:53:15.955Z,5.00
2023-01-09T21:55:45.987Z,5.00
2023-01-09T21:58:16.001Z,5.00
2023-01-09T22:00:48.793Z,5.00
2023-01-09T22:03:21.720Z,5.00
2023-01-09T22:05:51.718Z,5.00
2023-01-09T22:08:21.729Z,4.90
2023-01-09T22:11:00.228Z,5.00
2023-01-09T22:13:31.051Z,5.10
2023-01-09T22:16:11.471Z,5.00
2023-01-09T22:18:41.488Z,5.10
2023-01-09T22:21:11.778Z,5.10
2023-01-09T22:23:41.877Z,5.10
2023-01-09T22:26:14.320Z,5.00
2023-01-09T22:28:45.667Z,4.90
2023-01-09T22:31:25.194Z,4.90
2023-01-09T22:33:57.688Z,4.90
2023-01-09T22:36:29.867Z,5.00
2023-01-09T22:39:03.377Z,5.00
2023-01-09T22:41:33.671Z,5.00
2023-01-09T22:44:05.508Z,5.10
2023-01-09T22:46:38.339Z,5.10
2023-01-09T22:49:08.488Z,5.10
2023-01-09T22:51:38.540Z,5.10
2023-01-09T22:54:09.164Z,5.10
2023-01-09T22:56:39.450Z,5.10
2023-01-09T22:59:09.470Z,5.00
2023-01-09T23:01:42.173Z,5.00
2023-01-09T23:04:16.659Z,5.00
2023-01-09T23:06:46.804Z,5.00
2023-01-09T23:09:17.037Z,5.10
2023-01-09T23:11:59.545Z,5.10
2023-01-09T23:14:29.633Z,5.10
2023-01-09T23:17:02.822Z,5.00
2023-01-09T23:19:33.847Z,5.00
2023-01-09T23:22:04.903Z,4.90
2023-01-09T23:24:35.512Z,4.90
2023-01-09T23:27:05.701Z,4.90
2023-01-09T23:29:38.536Z,4.90
2023-01-09T23:32:14.168Z,4.90
2023-01-09T23:34:45.259Z,4.70
2023-01-09T23:37:15.739Z,4.60
2023-01-09T23:39:46.005Z,4.50
2023-01-09T23:42:43.334Z,4.50
2023-01-09T23:45:14.160Z,4.40
2023-01-09T23:47:46.954Z,4.40
2023-01-09T23:50:17.672Z,4.50
2023-01-09T23:52:47.928Z,4.50
2023-01-09T23:55:18.359Z,4.50
2023-01-09T23:57:48.646Z,4.40
